sensor_id;sensor_type;location;lat;lon;timestamp;pressure;altitude;pressure_sealevel;temperature;humidity
4590;BME280;2307;48.448;9.216;2022-09-02T00:01:33;95440.38;;;15.76;95.20
4590;BME280;2307;48.448;9.216;2022-09-02T00:04:02;95438.28;;;15.78;94.92
4590;BME280;2307;48.448;9.216;2022-09-02T00:06:30;95439.59;;;15.86;94.76
4590;BME280;2307;48.448;9.216;2022-09-02T00:08:57;95435.31;;;15.70;93.49
4590;BME280;2307;48.448;9.216;2022-09-02T00:11:26;95433.47;;;15.75;93.04
4590;BME280;2307;48.448;9.216;2022-09-02T00:13:53;95429.22;;;15.74;93.19
4590;BME280;2307;48.448;9.216;2022-09-02T00:16:21;95429.75;;;15.71;92.18
4590;BME280;2307;48.448;9.216;2022-09-02T00:18:49;95422.81;;;15.65;91.60
4590;BME280;2307;48.448;9.216;2022-09-02T00:21:16;95421.22;;;15.74;91.06
4590;BME280;2307;48.448;9.216;2022-09-02T00:23:43;95421.75;;;15.71;90.75
4590;BME280;2307;48.448;9.216;2022-09-02T00:26:09;95418.56;;;15.69;90.76
4590;BME280;2307;48.448;9.216;2022-09-02T00:28:38;95419.09;;;15.66;92.08
4590;BME280;2307;48.448;9.216;2022-09-02T00:31:04;95420.94;;;15.56;91.87
4590;BME280;2307;48.448;9.216;2022-09-02T00:33:31;95419.59;;;15.58;91.44
4590;BME280;2307;48.448;9.216;2022-09-02T00:35:58;95419.34;;;15.60;91.75
4590;BME280;2307;48.448;9.216;2022-09-02T00:38:25;95418.56;;;15.59;90.20
4590;BME280;2307;48.448;9.216;2022-09-02T00:40:51;95412.66;;;15.57;91.71
4590;BME280;2307;48.448;9.216;2022-09-02T00:43:21;95408.41;;;15.51;91.09
4590;BME280;2307;48.448;9.216;2022-09-02T00:45:49;95413.22;;;15.59;91.58
4590;BME280;2307;48.448;9.216;2022-09-02T00:48:17;95406.81;;;15.60;89.46
4590;BME280;2307;48.448;9.216;2022-09-02T00:50:43;95407.34;;;15.52;90.77
4590;BME280;2307;48.448;9.216;2022-09-02T00:53:10;95411.63;;;15.63;91.83
4590;BME280;2307;48.448;9.216;2022-09-02T00:55:39;95408.44;;;15.56;90.02
4590;BME280;2307;48.448;9.216;2022-09-02T00:58:13;95411.59;;;15.48;90.97
4590;BME280;2307;48.448;9.216;2022-09-02T01:00:41;95415.09;;;15.54;90.28
4590;BME280;2307;48.448;9.216;2022-09-02T01:03:12;95411.88;;;15.52;91.73
4590;BME280;2307;48.448;9.216;2022-09-02T01:05:40;95411.06;;;15.51;90.75
4590;BME280;2307;48.448;9.216;2022-09-02T01:08:09;95419.59;;;15.53;90.15
4590;BME280;2307;48.448;9.216;2022-09-02T01:10:36;95422.53;;;15.52;90.37
4590;BME280;2307;48.448;9.216;2022-09-02T01:13:03;95413.97;;;15.44;92.09
4590;BME280;2307;48.448;9.216;2022-09-02T01:15:31;95420.06;;;15.35;92.81
4590;BME280;2307;48.448;9.216;2022-09-02T01:17:57;95414.75;;;15.30;94.13
4590;BME280;2307;48.448;9.216;2022-09-02T01:20:25;95417.94;;;15.42;93.59
4590;BME280;2307;48.448;9.216;2022-09-02T01:22:53;95418.47;;;15.39;93.45
4590;BME280;2307;48.448;9.216;2022-09-02T01:25:22;95419.81;;;15.36;93.50
4590;BME280;2307;48.448;9.216;2022-09-02T01:27:49;95420.38;;;15.43;93.93
4590;BME280;2307;48.448;9.216;2022-09-02T01:30:17;95427.53;;;15.28;94.73
4590;BME280;2307;48.448;9.216;2022-09-02T01:32:44;95420.88;;;15.35;94.97
4590;BME280;2307;48.448;9.216;2022-09-02T01:35:11;95421.94;;;15.34;95.84
4590;BME280;2307;48.448;9.216;2022-09-02T01:37:38;95424.84;;;15.23;95.64
4590;BME280;2307;48.448;9.216;2022-09-02T01:40:06;95423.78;;;15.29;96.47
4590;BME280;2307;48.448;9.216;2022-09-02T01:42:33;95428.03;;;15.15;95.81
4590;BME280;2307;48.448;9.216;2022-09-02T01:45:00;95414.13;;;14.93;98.14
4590;BME280;2307;48.448;9.216;2022-09-02T01:47:26;95414.09;;;14.87;98.73
4590;BME280;2307;48.448;9.216;2022-09-02T01:49:53;95420.47;;;14.86;98.93
4590;BME280;2307;48.448;9.216;2022-09-02T01:52:21;95414.66;;;14.95;96.49
4590;BME280;2307;48.448;9.216;2022-09-02T01:54:47;95405.34;;;14.92;97.27
4590;BME280;2307;48.448;9.216;2022-09-02T01:57:15;95406.09;;;14.82;98.00
4590;BME280;2307;48.448;9.216;2022-09-02T01:59:42;95418.34;;;14.88;97.80
4590;BME280;2307;48.448;9.216;2022-09-02T02:02:10;95405.59;;;14.90;98.06
4590;BME280;2307;48.448;9.216;2022-09-02T02:04:36;95410.41;;;15.04;96.65
4590;BME280;2307;48.448;9.216;2022-09-02T02:07:03;95414.94;;;14.93;96.72
4590;BME280;2307;48.448;9.216;2022-09-02T02:09:30;95410.91;;;14.90;96.68
4590;BME280;2307;48.448;9.216;2022-09-02T02:11:56;95406.09;;;14.77;96.81
4590;BME280;2307;48.448;9.216;2022-09-02T02:14:24;95399.41;;;14.75;97.07
4590;BME280;2307;48.448;9.216;2022-09-02T02:16:50;95405.00;;;14.73;96.25
4590;BME280;2307;48.448;9.216;2022-09-02T02:19:17;95398.88;;;14.68;95.73
4590;BME280;2307;48.448;9.216;2022-09-02T02:21:43;95394.09;;;14.65;96.07
4590;BME280;2307;48.448;9.216;2022-09-02T02:24:10;95395.66;;;14.61;96.14
4590;BME280;2307;48.448;9.216;2022-09-02T02:26:36;95393.25;;;14.59;97.33
4590;BME280;2307;48.448;9.216;2022-09-02T02:29:02;95388.16;;;14.48;96.19
4590;BME280;2307;48.448;9.216;2022-09-02T02:31:30;95384.97;;;14.51;96.76
4590;BME280;2307;48.448;9.216;2022-09-02T02:33:57;95382.56;;;14.49;95.33
4590;BME280;2307;48.448;9.216;2022-09-02T02:36:23;95385.78;;;14.51;97.11
4590;BME280;2307;48.448;9.216;2022-09-02T02:38:50;95383.13;;;14.56;95.65
4590;BME280;2307;48.448;9.216;2022-09-02T02:41:16;95386.63;;;14.67;95.08
4590;BME280;2307;48.448;9.216;2022-09-02T02:43:43;95391.94;;;14.62;97.17
4590;BME280;2307;48.448;9.216;2022-09-02T02:46:09;95386.88;;;14.60;94.13
4590;BME280;2307;48.448;9.216;2022-09-02T02:48:37;95379.66;;;14.51;95.49
4590;BME280;2307;48.448;9.216;2022-09-02T02:51:04;95388.97;;;14.53;94.51
4590;BME280;2307;48.448;9.216;2022-09-02T02:53:32;95389.53;;;14.60;96.70
4590;BME280;2307;48.448;9.216;2022-09-02T02:56:00;95382.84;;;14.53;94.28
4590;BME280;2307;48.448;9.216;2022-09-02T02:58:27;95382.03;;;14.47;94.48
4590;BME280;2307;48.448;9.216;2022-09-02T03:00:54;95378.84;;;14.50;97.01
4590;BME280;2307;48.448;9.216;2022-09-02T03:03:20;95387.56;;;14.35;99.32
4590;BME280;2307;48.448;9.216;2022-09-02T03:05:48;95378.56;;;14.42;98.12
4590;BME280;2307;48.448;9.216;2022-09-02T03:08:15;95377.75;;;14.46;97.95
4590;BME280;2307;48.448;9.216;2022-09-02T03:10:45;95379.88;;;14.44;99.39
4590;BME280;2307;48.448;9.216;2022-09-02T03:13:12;95380.41;;;14.41;99.86
4590;BME280;2307;48.448;9.216;2022-09-02T03:15:39;95377.22;;;14.39;99.31
4590;BME280;2307;48.448;9.216;2022-09-02T03:18:06;95372.34;;;14.31;100.00
4590;BME280;2307;48.448;9.216;2022-09-02T03:20:33;95379.59;;;14.35;100.00
4590;BME280;2307;48.448;9.216;2022-09-02T03:23:01;95375.00;;;14.26;100.00
4590;BME280;2307;48.448;9.216;2022-09-02T03:25:29;95372.28;;;14.21;100.00
4590;BME280;2307;48.448;9.216;2022-09-02T03:27:56;95380.31;;;14.26;100.00
4590;BME280;2307;48.448;9.216;2022-09-02T03:30:24;95368.06;;;14.20;100.00
4590;BME280;2307;48.448;9.216;2022-09-02T03:32:51;95368.59;;;14.22;100.00
4590;BME280;2307;48.448;9.216;2022-09-02T03:35:18;95367.50;;;14.18;100.00
4590;BME280;2307;48.448;9.216;2022-09-02T03:37:45;95361.13;;;14.19;100.00
4590;BME280;2307;48.448;9.216;2022-09-02T03:40:14;95372.84;;;14.23;100.00
4590;BME280;2307;48.448;9.216;2022-09-02T03:42:41;95375.44;;;14.13;100.00
4590;BME280;2307;48.448;9.216;2022-09-02T03:45:08;95362.75;;;14.20;100.00
4590;BME280;2307;48.448;9.216;2022-09-02T03:47:35;95366.22;;;14.25;100.00
4590;BME280;2307;48.448;9.216;2022-09-02T03:50:04;95361.66;;;14.21;100.00
4590;BME280;2307;48.448;9.216;2022-09-02T03:52:31;95362.75;;;14.20;100.00
4590;BME280;2307;48.448;9.216;2022-09-02T03:54:57;95371.47;;;14.15;100.00
4590;BME280;2307;48.448;9.216;2022-09-02T03:57:25;95362.19;;;14.18;100.00
4590;BME280;2307;48.448;9.216;2022-09-02T03:59:52;95366.47;;;14.24;100.00
4590;BME280;2307;48.448;9.216;2022-09-02T04:02:18;95365.94;;;14.22;100.00
4590;BME280;2307;48.448;9.216;2022-09-02T04:04:45;95360.53;;;14.07;100.00
4590;BME280;2307;48.448;9.216;2022-09-02T04:07:11;95361.06;;;14.09;100.00
4590;BME280;2307;48.448;9.216;2022-09-02T04:09:37;95364.25;;;14.06;100.00
4590;BME280;2307;48.448;9.216;2022-09-02T04:12:04;95360.75;;;14.00;100.00
4590;BME280;2307;48.448;9.216;2022-09-02T04:14:32;95369.47;;;13.91;100.00
4590;BME280;2307;48.448;9.216;2022-09-02T04:23:04;95363.13;;;13.97;100.00
4590;BME280;2307;48.448;9.216;2022-09-02T04:25:30;95369.75;;;13.94;100.00
4590;BME280;2307;48.448;9.216;2022-09-02T04:27:57;95371.81;;;13.87;100.00
4590;BME280;2307;48.448;9.216;2022-09-02T04:30:25;95373.22;;;13.95;100.00
4590;BME280;2307;48.448;9.216;2022-09-02T04:32:51;95361.53;;;13.96;100.00
4590;BME280;2307;48.448;9.216;2022-09-02T04:35:18;95361.53;;;13.96;100.00
4590;BME280;2307;48.448;9.216;2022-09-02T04:37:44;95364.97;;;13.91;100.00
4590;BME280;2307;48.448;9.216;2022-09-02T04:40:13;95360.22;;;13.98;100.00
4590;BME280;2307;48.448;9.216;2022-09-02T04:42:39;95362.66;;;14.05;100.00
4590;BME280;2307;48.448;9.216;2022-09-02T04:45:06;95360.25;;;14.03;100.00
4590;BME280;2307;48.448;9.216;2022-09-02T04:47:34;95362.31;;;13.96;100.00
4590;BME280;2307;48.448;9.216;2022-09-02T04:50:00;95364.53;;;14.04;100.00
4590;BME280;2307;48.448;9.216;2022-09-02T04:52:27;95361.63;;;14.11;100.00
4590;BME280;2307;48.448;9.216;2022-09-02T04:54:53;95361.13;;;14.14;100.00
4590;BME280;2307;48.448;9.216;2022-09-02T04:57:20;95356.28;;;14.06;100.00
4590;BME280;2307;48.448;9.216;2022-09-02T04:59:46;95363.13;;;13.92;100.00
4590;BME280;2307;48.448;9.216;2022-09-02T05:02:13;95367.56;;;13.86;100.00
4590;BME280;2307;48.448;9.216;2022-09-02T05:04:40;95368.88;;;13.83;100.00
4590;BME280;2307;48.448;9.216;2022-09-02T05:07:07;95371.84;;;13.92;100.00
4590;BME280;2307;48.448;9.216;2022-09-02T05:09:33;95367.34;;;13.93;100.00
4590;BME280;2307;48.448;9.216;2022-09-02T05:11:59;95372.94;;;13.91;100.00
4590;BME280;2307;48.448;9.216;2022-09-02T05:14:28;95362.53;;;13.90;100.00
4590;BME280;2307;48.448;9.216;2022-09-02T05:16:55;95359.38;;;13.93;100.00
4590;BME280;2307;48.448;9.216;2022-09-02T05:19:23;95371.25;;;13.80;100.00
4590;BME280;2307;48.448;9.216;2022-09-02T05:21:51;95370.50;;;13.84;100.00
4590;BME280;2307;48.448;9.216;2022-09-02T05:24:19;95379.00;;;13.87;100.00
4590;BME280;2307;48.448;9.216;2022-09-02T05:26:45;95375.59;;;13.91;100.00
4590;BME280;2307;48.448;9.216;2022-09-02T05:29:12;95371.06;;;13.92;100.00
4590;BME280;2307;48.448;9.216;2022-09-02T05:31:38;95373.25;;;14.00;100.00
4590;BME280;2307;48.448;9.216;2022-09-02T05:34:06;95366.38;;;14.04;100.00
4590;BME280;2307;48.448;9.216;2022-09-02T05:36:32;95368.75;;;14.05;100.00
4590;BME280;2307;48.448;9.216;2022-09-02T05:39:00;95371.41;;;14.05;100.00
4590;BME280;2307;48.448;9.216;2022-09-02T05:41:26;95372.94;;;13.96;100.00
4590;BME280;2307;48.448;9.216;2022-09-02T05:43:54;95362.66;;;14.05;100.00
4590;BME280;2307;48.448;9.216;2022-09-02T05:46:21;95366.91;;;14.06;100.00
4590;BME280;2307;48.448;9.216;2022-09-02T05:48:48;95364.81;;;14.08;100.00
4590;BME280;2307;48.448;9.216;2022-09-02T05:51:42;95356.00;;;14.02;100.00
4590;BME280;2307;48.448;9.216;2022-09-02T05:54:12;95355.81;;;14.14;100.00
4590;BME280;2307;48.448;9.216;2022-09-02T05:56:39;95363.50;;;14.15;100.00
4590;BME280;2307;48.448;9.216;2022-09-02T05:59:06;95360.84;;;14.15;100.00
4590;BME280;2307;48.448;9.216;2022-09-02T06:01:34;95364.06;;;14.17;100.00
4590;BME280;2307;48.448;9.216;2022-09-02T06:04:01;95362.16;;;14.13;100.00
4590;BME280;2307;48.448;9.216;2022-09-02T06:06:28;95361.63;;;14.11;100.00
4590;BME280;2307;48.448;9.216;2022-09-02T06:08:54;95365.91;;;14.17;100.00
4590;BME280;2307;48.448;9.216;2022-09-02T06:11:22;95364.84;;;14.18;100.00
4590;BME280;2307;48.448;9.216;2022-09-02T06:13:49;95365.34;;;14.10;100.00
4590;BME280;2307;48.448;9.216;2022-09-02T06:16:19;95371.19;;;14.12;100.00
4590;BME280;2307;48.448;9.216;2022-09-02T06:18:46;95369.69;;;14.31;100.00
4590;BME280;2307;48.448;9.216;2022-09-02T06:21:13;95370.72;;;14.20;100.00
4590;BME280;2307;48.448;9.216;2022-09-02T06:23:40;95366.50;;;14.29;100.00
4590;BME280;2307;48.448;9.216;2022-09-02T06:26:08;95367.84;;;14.31;100.00
4590;BME280;2307;48.448;9.216;2022-09-02T06:28:36;95366.72;;;14.22;100.00
4590;BME280;2307;48.448;9.216;2022-09-02T06:31:06;95371.06;;;14.33;100.00
4590;BME280;2307;48.448;9.216;2022-09-02T06:33:33;95362.34;;;14.43;100.00
4590;BME280;2307;48.448;9.216;2022-09-02T06:35:59;95366.06;;;14.42;100.00
4590;BME280;2307;48.448;9.216;2022-09-02T06:38:26;95356.72;;;14.34;100.00
4590;BME280;2307;48.448;9.216;2022-09-02T06:40:53;95361.78;;;14.36;100.00
4590;BME280;2307;48.448;9.216;2022-09-02T06:43:20;95361.28;;;14.44;100.00
4590;BME280;2307;48.448;9.216;2022-09-02T06:45:48;95352.28;;;14.50;100.00
4590;BME280;2307;48.448;9.216;2022-09-02T06:48:14;95361.34;;;14.59;100.00
4590;BME280;2307;48.448;9.216;2022-09-02T06:50:42;95357.63;;;14.60;100.00
4590;BME280;2307;48.448;9.216;2022-09-02T06:53:09;95359.97;;;14.47;100.00
4590;BME280;2307;48.448;9.216;2022-09-02T06:55:36;95360.69;;;14.32;100.00
4590;BME280;2307;48.448;9.216;2022-09-02T06:58:03;95356.34;;;14.21;100.00
4590;BME280;2307;48.448;9.216;2022-09-02T07:00:29;95358.53;;;14.29;100.00
4590;BME280;2307;48.448;9.216;2022-09-02T07:02:58;95357.97;;;14.27;100.00
4590;BME280;2307;48.448;9.216;2022-09-02T07:05:41;95353.81;;;14.36;100.00
4590;BME280;2307;48.448;9.216;2022-09-02T07:08:08;95353.31;;;14.44;100.00
4590;BME280;2307;48.448;9.216;2022-09-02T07:10:36;95350.72;;;14.59;100.00
4590;BME280;2307;48.448;9.216;2022-09-02T07:13:02;95356.59;;;14.61;100.00
4590;BME280;2307;48.448;9.216;2022-09-02T07:15:29;95351.88;;;14.83;100.00
4590;BME280;2307;48.448;9.216;2022-09-02T07:17:55;95351.59;;;14.80;100.00
4590;BME280;2307;48.448;9.216;2022-09-02T07:20:23;95357.19;;;14.88;100.00
4590;BME280;2307;48.448;9.216;2022-09-02T07:22:50;95347.06;;;14.90;100.00
4590;BME280;2307;48.448;9.216;2022-09-02T07:25:16;95355.06;;;14.85;100.00
4590;BME280;2307;48.448;9.216;2022-09-02T07:27:43;95347.63;;;14.93;100.00
4590;BME280;2307;48.448;9.216;2022-09-02T07:30:10;95355.63;;;15.03;100.00
4590;BME280;2307;48.448;9.216;2022-09-02T07:32:37;95354.03;;;15.07;100.00
4590;BME280;2307;48.448;9.216;2022-09-02T07:35:04;95351.38;;;15.17;100.00
4590;BME280;2307;48.448;9.216;2022-09-02T07:37:33;95350.59;;;15.26;100.00
4590;BME280;2307;48.448;9.216;2022-09-02T07:39:59;95347.69;;;15.43;100.00
4590;BME280;2307;48.448;9.216;2022-09-02T07:42:26;95340.25;;;15.40;100.00
4590;BME280;2307;48.448;9.216;2022-09-02T07:44:52;95339.72;;;15.43;100.00
4590;BME280;2307;48.448;9.216;2022-09-02T07:47:19;95345.03;;;15.43;100.00
4590;BME280;2307;48.448;9.216;2022-09-02T07:49:45;95349.81;;;15.46;100.00
4590;BME280;2307;48.448;9.216;2022-09-02T07:52:12;95348.25;;;15.60;100.00
4590;BME280;2307;48.448;9.216;2022-09-02T07:54:39;95353.31;;;15.72;100.00
4590;BME280;2307;48.448;9.216;2022-09-02T07:57:06;95349.28;;;15.89;100.00
4590;BME280;2307;48.448;9.216;2022-09-02T07:59:32;95343.94;;;16.00;100.00
4590;BME280;2307;48.448;9.216;2022-09-02T08:01:59;95353.53;;;16.06;100.00
4590;BME280;2307;48.448;9.216;2022-09-02T08:04:25;95343.09;;;16.14;100.00
4590;BME280;2307;48.448;9.216;2022-09-02T08:06:52;95345.00;;;16.14;100.00
4590;BME280;2307;48.448;9.216;2022-09-02T08:09:19;95351.94;;;16.10;100.00
4590;BME280;2307;48.448;9.216;2022-09-02T08:11:48;95353.78;;;16.19;99.09
4590;BME280;2307;48.448;9.216;2022-09-02T08:14:15;95357.72;;;16.37;100.00
4590;BME280;2307;48.448;9.216;2022-09-02T08:16:42;95362.53;;;16.35;100.00
4590;BME280;2307;48.448;9.216;2022-09-02T08:19:09;95359.03;;;16.39;100.00
4590;BME280;2307;48.448;9.216;2022-09-02T08:21:36;95356.63;;;16.48;99.21
4590;BME280;2307;48.448;9.216;2022-09-02T08:24:02;95360.34;;;16.57;99.25
4590;BME280;2307;48.448;9.216;2022-09-02T08:26:29;95357.09;;;16.65;99.61
4590;BME280;2307;48.448;9.216;2022-09-02T08:28:57;95351.00;;;16.60;97.57
4590;BME280;2307;48.448;9.216;2022-09-02T08:31:23;95359.72;;;16.80;91.39
4590;BME280;2307;48.448;9.216;2022-09-02T08:33:50;95357.06;;;16.80;95.84
4590;BME280;2307;48.448;9.216;2022-09-02T08:36:16;95359.69;;;16.85;95.17
4590;BME280;2307;48.448;9.216;2022-09-02T08:38:43;95358.53;;;16.96;98.65
4590;BME280;2307;48.448;9.216;2022-09-02T08:41:13;95360.13;;;17.03;98.41
4590;BME280;2307;48.448;9.216;2022-09-02T08:43:42;95359.66;;;16.90;96.22
4590;BME280;2307;48.448;9.216;2022-09-02T08:46:11;95352.13;;;17.03;93.62
4590;BME280;2307;48.448;9.216;2022-09-02T08:48:41;95358.72;;;17.15;95.29
4590;BME280;2307;48.448;9.216;2022-09-02T08:51:12;95353.59;;;17.19;86.33
4590;BME280;2307;48.448;9.216;2022-09-02T08:53:43;95355.41;;;17.33;88.42
4590;BME280;2307;48.448;9.216;2022-09-02T08:56:11;95356.97;;;17.39;91.32
4590;BME280;2307;48.448;9.216;2022-09-02T08:58:41;95340.81;;;17.60;82.58
4590;BME280;2307;48.448;9.216;2022-09-02T09:01:12;95348.53;;;17.61;85.22
4590;BME280;2307;48.448;9.216;2022-09-02T09:03:42;95349.03;;;17.68;89.93
4590;BME280;2307;48.448;9.216;2022-09-02T09:06:18;95357.47;;;17.80;90.58
4590;BME280;2307;48.448;9.216;2022-09-02T09:08:49;95342.78;;;17.78;88.75
4590;BME280;2307;48.448;9.216;2022-09-02T09:11:18;95341.91;;;17.87;84.35
4590;BME280;2307;48.448;9.216;2022-09-02T09:13:54;95340.13;;;18.07;79.42
4590;BME280;2307;48.448;9.216;2022-09-02T09:16:27;95335.75;;;18.16;78.59
4590;BME280;2307;48.448;9.216;2022-09-02T09:19:02;95349.69;;;18.13;73.98
4590;BME280;2307;48.448;9.216;2022-09-02T09:21:31;95342.16;;;18.15;75.77
4590;BME280;2307;48.448;9.216;2022-09-02T09:23:58;95337.53;;;18.25;77.10
4590;BME280;2307;48.448;9.216;2022-09-02T09:26:27;95324.31;;;18.34;73.20
4590;BME280;2307;48.448;9.216;2022-09-02T09:28:54;95325.28;;;18.43;76.93
4590;BME280;2307;48.448;9.216;2022-09-02T09:31:26;95326.03;;;18.48;79.16
4590;BME280;2307;48.448;9.216;2022-09-02T09:33:55;95323.69;;;18.42;72.41
4590;BME280;2307;48.448;9.216;2022-09-02T09:36:33;95332.16;;;18.49;75.39
4590;BME280;2307;48.448;9.216;2022-09-02T09:39:15;95327.88;;;18.53;77.53
4590;BME280;2307;48.448;9.216;2022-09-02T09:41:42;95332.72;;;18.46;71.11
4590;BME280;2307;48.448;9.216;2022-09-02T09:44:08;95324.69;;;18.51;78.93
4590;BME280;2307;48.448;9.216;2022-09-02T09:46:35;95328.31;;;18.60;74.82
4590;BME280;2307;48.448;9.216;2022-09-02T09:49:02;95323.34;;;18.72;74.53
4590;BME280;2307;48.448;9.216;2022-09-02T09:51:29;95329.28;;;18.69;74.98
4590;BME280;2307;48.448;9.216;2022-09-02T09:54:12;95319.72;;;18.63;67.79
4590;BME280;2307;48.448;9.216;2022-09-02T09:56:39;95318.66;;;18.64;70.68
4590;BME280;2307;48.448;9.216;2022-09-02T09:59:06;95316.13;;;18.73;72.50
4590;BME280;2307;48.448;9.216;2022-09-02T10:01:33;95316.72;;;18.88;71.45
4590;BME280;2307;48.448;9.216;2022-09-02T10:04:01;95314.13;;;19.02;69.14
4590;BME280;2307;48.448;9.216;2022-09-02T10:06:37;95311.72;;;19.00;68.33
4590;BME280;2307;48.448;9.216;2022-09-02T10:09:05;95308.06;;;19.15;66.68
4590;BME280;2307;48.448;9.216;2022-09-02T10:11:32;95310.72;;;19.15;65.06
4590;BME280;2307;48.448;9.216;2022-09-02T10:14:00;95304.34;;;19.30;65.43
4590;BME280;2307;48.448;9.216;2022-09-02T10:16:30;95313.19;;;19.49;65.78
4590;BME280;2307;48.448;9.216;2022-09-02T10:19:00;95310.19;;;19.69;65.18
4590;BME280;2307;48.448;9.216;2022-09-02T10:21:38;95308.06;;;19.66;61.53
4590;BME280;2307;48.448;9.216;2022-09-02T10:24:13;95307.53;;;19.96;60.72
4590;BME280;2307;48.448;9.216;2022-09-02T10:26:46;95304.84;;;20.29;63.14
4590;BME280;2307;48.448;9.216;2022-09-02T10:29:31;95303.81;;;20.52;60.84
4590;BME280;2307;48.448;9.216;2022-09-02T10:32:08;95306.34;;;20.98;58.58
4590;BME280;2307;48.448;9.216;2022-09-02T10:34:38;95305.97;;;21.40;58.46
4590;BME280;2307;48.448;9.216;2022-09-02T10:37:10;95299.53;;;21.72;53.94
4590;BME280;2307;48.448;9.216;2022-09-02T10:39:51;95305.03;;;21.89;52.22
4590;BME280;2307;48.448;9.216;2022-09-02T10:42:32;95298.34;;;22.09;51.89
4590;BME280;2307;48.448;9.216;2022-09-02T10:45:01;95291.13;;;22.27;50.84
4590;BME280;2307;48.448;9.216;2022-09-02T10:47:31;95285.88;;;22.61;49.37
4590;BME280;2307;48.448;9.216;2022-09-02T10:50:01;95291.00;;;22.71;48.34
4590;BME280;2307;48.448;9.216;2022-09-02T10:52:36;95288.00;;;22.81;47.27
4590;BME280;2307;48.448;9.216;2022-09-02T10:55:11;95281.81;;;22.81;44.88
4590;BME280;2307;48.448;9.216;2022-09-02T10:57:41;95279.47;;;22.96;45.33
4590;BME280;2307;48.448;9.216;2022-09-02T11:00:12;95274.41;;;23.12;47.70
4590;BME280;2307;48.448;9.216;2022-09-02T11:02:40;95268.72;;;23.13;44.27
4590;BME280;2307;48.448;9.216;2022-09-02T11:05:08;95262.69;;;23.16;42.38
4590;BME280;2307;48.448;9.216;2022-09-02T11:07:40;95269.03;;;23.29;45.32
4590;BME280;2307;48.448;9.216;2022-09-02T11:10:08;95263.34;;;23.48;47.29
4590;BME280;2307;48.448;9.216;2022-09-02T11:12:38;95252.41;;;23.44;46.18
4590;BME280;2307;48.448;9.216;2022-09-02T11:15:09;95255.69;;;23.67;45.60
4590;BME280;2307;48.448;9.216;2022-09-02T11:17:39;95263.91;;;23.79;46.26
4590;BME280;2307;48.448;9.216;2022-09-02T11:20:11;95255.78;;;23.96;44.34
4590;BME280;2307;48.448;9.216;2022-09-02T11:22:39;95259.69;;;24.07;42.81
4590;BME280;2307;48.448;9.216;2022-09-02T11:25:10;95250.94;;;24.27;43.99
4590;BME280;2307;48.448;9.216;2022-09-02T11:27:42;95247.50;;;24.48;43.34
4590;BME280;2307;48.448;9.216;2022-09-02T11:30:11;95253.06;;;24.43;44.46
4590;BME280;2307;48.448;9.216;2022-09-02T11:32:38;95253.94;;;24.64;42.69
4590;BME280;2307;48.448;9.216;2022-09-02T11:35:06;95257.78;;;24.83;44.22
4590;BME280;2307;48.448;9.216;2022-09-02T11:37:36;95251.44;;;24.79;41.77
4590;BME280;2307;48.448;9.216;2022-09-02T11:40:05;95258.75;;;24.79;42.81
4590;BME280;2307;48.448;9.216;2022-09-02T11:42:48;95257.34;;;25.02;42.58
4590;BME280;2307;48.448;9.216;2022-09-02T11:51:05;95260.53;;;25.04;41.43
4590;BME280;2307;48.448;9.216;2022-09-02T11:53:35;95252.88;;;25.06;42.66
4590;BME280;2307;48.448;9.216;2022-09-02T11:56:04;95252.34;;;25.13;42.65
4590;BME280;2307;48.448;9.216;2022-09-02T11:58:36;95252.69;;;25.11;39.74
4590;BME280;2307;48.448;9.216;2022-09-02T12:01:05;95252.59;;;25.41;41.20
4590;BME280;2307;48.448;9.216;2022-09-02T12:03:42;95260.50;;;25.46;39.57
4590;BME280;2307;48.448;9.216;2022-09-02T12:06:09;95252.44;;;25.37;38.39
4590;BME280;2307;48.448;9.216;2022-09-02T12:11:40;95262.06;;;25.67;38.32
4590;BME280;2307;48.448;9.216;2022-09-02T12:14:09;95266.06;;;25.82;35.70
4590;BME280;2307;48.448;9.216;2022-09-02T12:16:41;95259.63;;;25.74;35.99
4590;BME280;2307;48.448;9.216;2022-09-02T12:24:47;95262.75;;;25.97;37.85
4590;BME280;2307;48.448;9.216;2022-09-02T12:27:20;95265.25;;;25.81;36.58
4590;BME280;2307;48.448;9.216;2022-09-02T12:29:49;95260.94;;;25.48;36.21
4590;BME280;2307;48.448;9.216;2022-09-02T12:35:06;95251.69;;;26.02;36.82
4590;BME280;2307;48.448;9.216;2022-09-02T12:37:48;95244.19;;;26.32;39.31
4590;BME280;2307;48.448;9.216;2022-09-02T12:40:16;95236.16;;;26.23;34.53
4590;BME280;2307;48.448;9.216;2022-09-02T12:42:45;95248.53;;;26.00;37.13
4590;BME280;2307;48.448;9.216;2022-09-02T12:45:14;95244.28;;;25.78;36.12
4590;BME280;2307;48.448;9.216;2022-09-02T12:47:49;95235.38;;;26.23;37.54
4590;BME280;2307;48.448;9.216;2022-09-02T12:50:18;95236.28;;;26.75;38.42
4590;BME280;2307;48.448;9.216;2022-09-02T12:52:46;95235.03;;;26.97;35.10
4590;BME280;2307;48.448;9.216;2022-09-02T12:55:18;95236.09;;;27.20;36.79
4590;BME280;2307;48.448;9.216;2022-09-02T12:57:46;95232.91;;;27.18;36.29
4590;BME280;2307;48.448;9.216;2022-09-02T13:00:15;95226.59;;;27.26;36.03
4590;BME280;2307;48.448;9.216;2022-09-02T13:02:52;95220.22;;;27.34;35.07
4590;BME280;2307;48.448;9.216;2022-09-02T13:05:20;95223.31;;;27.61;34.76
4590;BME280;2307;48.448;9.216;2022-09-02T13:08:01;95215.63;;;27.78;33.52
4590;BME280;2307;48.448;9.216;2022-09-02T13:10:55;95211.78;;;27.95;35.00
4590;BME280;2307;48.448;9.216;2022-09-02T13:13:41;95217.03;;;28.04;35.22
4590;BME280;2307;48.448;9.216;2022-09-02T13:16:17;95208.72;;;27.81;35.21
4590;BME280;2307;48.448;9.216;2022-09-02T13:21:35;95201.91;;;27.87;35.70
4590;BME280;2307;48.448;9.216;2022-09-02T13:24:11;95201.19;;;27.74;37.89
4590;BME280;2307;48.448;9.216;2022-09-02T13:29:32;95179.72;;;27.85;35.86
4590;BME280;2307;48.448;9.216;2022-09-02T13:32:11;95175.56;;;28.19;35.93
4590;BME280;2307;48.448;9.216;2022-09-02T13:34:39;95169.53;;;28.10;34.92
4590;BME280;2307;48.448;9.216;2022-09-02T13:37:06;95179.06;;;28.19;34.30
4590;BME280;2307;48.448;9.216;2022-09-02T13:39:51;95169.59;;;28.13;35.03
4590;BME280;2307;48.448;9.216;2022-09-02T13:42:18;95171.06;;;27.79;35.51
4590;BME280;2307;48.448;9.216;2022-09-02T13:44:47;95168.44;;;27.98;35.56
4590;BME280;2307;48.448;9.216;2022-09-02T13:47:15;95171.06;;;27.95;34.89
4590;BME280;2307;48.448;9.216;2022-09-02T13:49:44;95166.63;;;28.18;35.90
4590;BME280;2307;48.448;9.216;2022-09-02T13:52:12;95159.69;;;28.21;34.10
4590;BME280;2307;48.448;9.216;2022-09-02T13:54:42;95163.22;;;28.21;34.36